sensor_id;sensor_type;location;lat;lon;timestamp;temperature;humidity
74822;DHT22;63353;48.702;8.884;2023-12-22T00:01:42;6.20;99.90
74822;DHT22;63353;48.702;8.884;2023-12-22T00:04:08;6.10;99.90
74822;DHT22;63353;48.702;8.884;2023-12-22T00:06:34;6.10;99.90
74822;DHT22;63353;48.702;8.884;2023-12-22T00:09:00;6.20;99.90
74822;DHT22;63353;48.702;8.884;2023-12-22T00:11:26;6.10;99.90
74822;DHT22;63353;48.702;8.884;2023-12-22T00:13:51;6.20;99.90
74822;DHT22;63353;48.702;8.884;2023-12-22T00:16:17;6.10;99.90
74822;DHT22;63353;48.702;8.884;2023-12-22T00:18:43;6.20;99.90
74822;DHT22;63353;48.702;8.884;2023-12-22T00:21:11;6.20;99.90
74822;DHT22;63353;48.702;8.884;2023-12-22T00:23:37;6.30;99.90
74822;DHT22;63353;48.702;8.884;2023-12-22T00:26:04;6.30;99.90
74822;DHT22;63353;48.702;8.884;2023-12-22T00:28:30;6.40;99.90
74822;DHT22;63353;48.702;8.884;2023-12-22T00:30:57;6.30;99.90
74822;DHT22;63353;48.702;8.884;2023-12-22T00:33:24;6.30;99.90
74822;DHT22;63353;48.702;8.884;2023-12-22T00:35:49;6.30;99.90
74822;DHT22;63353;48.702;8.884;2023-12-22T00:38:15;6.30;99.90
74822;DHT22;63353;48.702;8.884;2023-12-22T00:40:40;6.30;99.90
74822;DHT22;63353;48.702;8.884;2023-12-22T00:43:06;6.30;99.90
74822;DHT22;63353;48.702;8.884;2023-12-22T00:45:32;6.30;99.90
74822;DHT22;63353;48.702;8.884;2023-12-22T00:47:57;6.30;99.90
74822;DHT22;63353;48.702;8.884;2023-12-22T00:50:23;6.30;99.90
74822;DHT22;63353;48.702;8.884;2023-12-22T00:52:49;6.30;99.90
74822;DHT22;63353;48.702;8.884;2023-12-22T00:55:14;6.30;99.90
74822;DHT22;63353;48.702;8.884;2023-12-22T00:57:40;6.20;99.90
74822;DHT22;63353;48.702;8.884;2023-12-22T01:00:06;6.20;99.90
74822;DHT22;63353;48.702;8.884;2023-12-22T01:02:36;6.10;99.90
74822;DHT22;63353;48.702;8.884;2023-12-22T01:05:01;6.20;99.90
74822;DHT22;63353;48.702;8.884;2023-12-22T01:07:27;6.10;99.90
74822;DHT22;63353;48.702;8.884;2023-12-22T01:09:52;6.10;99.90
74822;DHT22;63353;48.702;8.884;2023-12-22T01:12:19;6.10;99.90
74822;DHT22;63353;48.702;8.884;2023-12-22T01:14:44;6.00;99.90
74822;DHT22;63353;48.702;8.884;2023-12-22T01:17:11;6.00;99.90
74822;DHT22;63353;48.702;8.884;2023-12-22T01:19:36;6.00;99.90
74822;DHT22;63353;48.702;8.884;2023-12-22T01:22:02;6.00;99.90
74822;DHT22;63353;48.702;8.884;2023-12-22T01:24:28;6.00;99.90
74822;DHT22;63353;48.702;8.884;2023-12-22T01:26:53;6.00;99.90
74822;DHT22;63353;48.702;8.884;2023-12-22T01:29:19;6.00;99.90
74822;DHT22;63353;48.702;8.884;2023-12-22T01:31:45;6.00;99.90
74822;DHT22;63353;48.702;8.884;2023-12-22T01:34:10;6.00;99.90
74822;DHT22;63353;48.702;8.884;2023-12-22T01:36:36;6.00;99.90
74822;DHT22;63353;48.702;8.884;2023-12-22T01:39:02;5.90;99.90
74822;DHT22;63353;48.702;8.884;2023-12-22T01:41:28;5.80;99.90
74822;DHT22;63353;48.702;8.884;2023-12-22T01:43:54;5.80;99.90
74822;DHT22;63353;48.702;8.884;2023-12-22T01:46:20;5.80;99.90
74822;DHT22;63353;48.702;8.884;2023-12-22T01:48:46;5.80;99.90
74822;DHT22;63353;48.702;8.884;2023-12-22T01:51:12;5.80;99.90
74822;DHT22;63353;48.702;8.884;2023-12-22T01:53:38;5.80;99.90
74822;DHT22;63353;48.702;8.884;2023-12-22T01:56:04;5.80;99.90
74822;DHT22;63353;48.702;8.884;2023-12-22T01:58:32;5.90;99.90
74822;DHT22;63353;48.702;8.884;2023-12-22T02:00:58;5.90;99.90
74822;DHT22;63353;48.702;8.884;2023-12-22T02:03:24;5.90;99.90
74822;DHT22;63353;48.702;8.884;2023-12-22T02:05:50;6.00;99.90
74822;DHT22;63353;48.702;8.884;2023-12-22T02:08:18;5.90;99.90
74822;DHT22;63353;48.702;8.884;2023-12-22T02:10:44;5.90;99.90
74822;DHT22;63353;48.702;8.884;2023-12-22T02:13:10;5.80;99.90
74822;DHT22;63353;48.702;8.884;2023-12-22T02:15:36;5.80;99.90
74822;DHT22;63353;48.702;8.884;2023-12-22T02:18:09;5.70;99.90
74822;DHT22;63353;48.702;8.884;2023-12-22T02:20:36;5.70;99.90
74822;DHT22;63353;48.702;8.884;2023-12-22T02:23:02;5.70;99.90
74822;DHT22;63353;48.702;8.884;2023-12-22T02:25:28;5.80;99.90
74822;DHT22;63353;48.702;8.884;2023-12-22T02:27:58;5.80;99.90
74822;DHT22;63353;48.702;8.884;2023-12-22T02:30:32;5.90;99.90
74822;DHT22;63353;48.702;8.884;2023-12-22T02:33:01;5.90;99.90
74822;DHT22;63353;48.702;8.884;2023-12-22T02:35:29;6.00;99.90
74822;DHT22;63353;48.702;8.884;2023-12-22T02:38:00;6.00;99.90
74822;DHT22;63353;48.702;8.884;2023-12-22T02:40:27;6.00;99.90
74822;DHT22;63353;48.702;8.884;2023-12-22T02:42:53;6.00;99.90
74822;DHT22;63353;48.702;8.884;2023-12-22T02:45:19;6.00;99.90
74822;DHT22;63353;48.702;8.884;2023-12-22T02:47:46;6.00;99.90
74822;DHT22;63353;48.702;8.884;2023-12-22T02:50:13;5.90;99.90
74822;DHT22;63353;48.702;8.884;2023-12-22T02:52:39;6.00;99.90
74822;DHT22;63353;48.702;8.884;2023-12-22T02:55:05;6.00;99.90
74822;DHT22;63353;48.702;8.884;2023-12-22T02:57:31;6.00;99.90
74822;DHT22;63353;48.702;8.884;2023-12-22T02:59:57;6.00;99.90
74822;DHT22;63353;48.702;8.884;2023-12-22T03:02:23;6.00;99.90
74822;DHT22;63353;48.702;8.884;2023-12-22T03:04:49;6.00;99.90
74822;DHT22;63353;48.702;8.884;2023-12-22T03:07:15;6.00;99.90
74822;DHT22;63353;48.702;8.884;2023-12-22T03:09:41;5.90;99.90
74822;DHT22;63353;48.702;8.884;2023-12-22T03:12:08;5.90;99.90
74822;DHT22;63353;48.702;8.884;2023-12-22T03:14:34;5.90;99.90
74822;DHT22;63353;48.702;8.884;2023-12-22T03:17:01;6.00;99.90
74822;DHT22;63353;48.702;8.884;2023-12-22T03:19:27;6.00;99.90
74822;DHT22;63353;48.702;8.884;2023-12-22T03:21:53;6.00;99.90
74822;DHT22;63353;48.702;8.884;2023-12-22T03:24:18;5.90;99.90
74822;DHT22;63353;48.702;8.884;2023-12-22T03:26:48;5.90;99.90
74822;DHT22;63353;48.702;8.884;2023-12-22T03:29:14;6.00;99.90
74822;DHT22;63353;48.702;8.884;2023-12-22T03:31:40;6.00;99.90
74822;DHT22;63353;48.702;8.884;2023-12-22T03:34:06;6.00;99.90
74822;DHT22;63353;48.702;8.884;2023-12-22T03:36:32;6.00;99.90
74822;DHT22;63353;48.702;8.884;2023-12-22T03:38:58;5.90;99.90
74822;DHT22;63353;48.702;8.884;2023-12-22T03:41:23;6.00;99.90
74822;DHT22;63353;48.702;8.884;2023-12-22T03:43:49;6.00;99.90
74822;DHT22;63353;48.702;8.884;2023-12-22T03:46:15;6.00;99.90
74822;DHT22;63353;48.702;8.884;2023-12-22T03:48:40;6.00;99.90
74822;DHT22;63353;48.702;8.884;2023-12-22T03:51:06;6.00;99.90
74822;DHT22;63353;48.702;8.884;2023-12-22T03:53:31;6.00;99.90
74822;DHT22;63353;48.702;8.884;2023-12-22T03:55:57;6.10;99.90
74822;DHT22;63353;48.702;8.884;2023-12-22T03:58:23;6.10;99.90
74822;DHT22;63353;48.702;8.884;2023-12-22T04:00:50;6.10;99.90
74822;DHT22;63353;48.702;8.884;2023-12-22T04:03:15;6.10;99.90
74822;DHT22;63353;48.702;8.884;2023-12-22T04:05:41;6.10;99.90
74822;DHT22;63353;48.702;8.884;2023-12-22T04:08:07;6.10;99.90
74822;DHT22;63353;48.702;8.884;2023-12-22T04:10:32;6.20;99.90
74822;DHT22;63353;48.702;8.884;2023-12-22T04:12:58;6.30;99.90
74822;DHT22;63353;48.702;8.884;2023-12-22T04:15:23;6.20;99.90
74822;DHT22;63353;48.702;8.884;2023-12-22T04:17:49;6.20;99.90
74822;DHT22;63353;48.702;8.884;2023-12-22T04:20:15;6.20;99.90
74822;DHT22;63353;48.702;8.884;2023-12-22T04:22:41;6.20;99.90
74822;DHT22;63353;48.702;8.884;2023-12-22T04:25:07;6.00;99.90
74822;DHT22;63353;48.702;8.884;2023-12-22T04:27:34;5.70;99.90
74822;DHT22;63353;48.702;8.884;2023-12-22T04:29:59;5.60;99.90
74822;DHT22;63353;48.702;8.884;2023-12-22T04:32:27;5.50;99.90
74822;DHT22;63353;48.702;8.884;2023-12-22T04:34:52;5.40;99.90
74822;DHT22;63353;48.702;8.884;2023-12-22T04:37:18;5.30;99.90
74822;DHT22;63353;48.702;8.884;2023-12-22T04:39:43;5.20;99.90
74822;DHT22;63353;48.702;8.884;2023-12-22T04:42:09;5.20;99.90
74822;DHT22;63353;48.702;8.884;2023-12-22T04:44:35;5.20;99.90
74822;DHT22;63353;48.702;8.884;2023-12-22T04:47:00;5.20;99.90
74822;DHT22;63353;48.702;8.884;2023-12-22T04:49:26;5.20;99.90
74822;DHT22;63353;48.702;8.884;2023-12-22T04:51:51;5.30;99.90
74822;DHT22;63353;48.702;8.884;2023-12-22T04:54:17;5.40;99.90
74822;DHT22;63353;48.702;8.884;2023-12-22T04:56:43;5.50;99.90
74822;DHT22;63353;48.702;8.884;2023-12-22T04:59:11;5.40;99.90
74822;DHT22;63353;48.702;8.884;2023-12-22T05:01:37;5.40;99.90
74822;DHT22;63353;48.702;8.884;2023-12-22T05:04:05;5.30;99.90
74822;DHT22;63353;48.702;8.884;2023-12-22T05:06:32;5.30;99.90
74822;DHT22;63353;48.702;8.884;2023-12-22T05:08:58;5.40;99.90
74822;DHT22;63353;48.702;8.884;2023-12-22T05:11:23;5.40;99.90
74822;DHT22;63353;48.702;8.884;2023-12-22T05:13:49;5.40;99.90
74822;DHT22;63353;48.702;8.884;2023-12-22T05:16:15;5.40;99.90
74822;DHT22;63353;48.702;8.884;2023-12-22T05:18:40;5.40;99.90
74822;DHT22;63353;48.702;8.884;2023-12-22T05:21:06;5.50;99.90
74822;DHT22;63353;48.702;8.884;2023-12-22T05:23:31;5.50;99.90
74822;DHT22;63353;48.702;8.884;2023-12-22T05:25:58;5.50;99.90
74822;DHT22;63353;48.702;8.884;2023-12-22T05:28:23;5.60;99.90
74822;DHT22;63353;48.702;8.884;2023-12-22T05:30:49;5.60;99.90
74822;DHT22;63353;48.702;8.884;2023-12-22T05:33:14;5.70;99.90
74822;DHT22;63353;48.702;8.884;2023-12-22T05:35:40;5.70;99.90
74822;DHT22;63353;48.702;8.884;2023-12-22T05:38:06;5.80;99.90
74822;DHT22;63353;48.702;8.884;2023-12-22T05:40:32;5.90;99.90
74822;DHT22;63353;48.702;8.884;2023-12-22T05:42:57;5.90;99.90
74822;DHT22;63353;48.702;8.884;2023-12-22T05:45:23;5.90;99.90
74822;DHT22;63353;48.702;8.884;2023-12-22T05:47:50;5.90;99.90
74822;DHT22;63353;48.702;8.884;2023-12-22T05:50:16;6.00;99.90
74822;DHT22;63353;48.702;8.884;2023-12-22T05:52:42;5.80;99.90
74822;DHT22;63353;48.702;8.884;2023-12-22T05:55:11;5.70;99.90
74822;DHT22;63353;48.702;8.884;2023-12-22T05:57:37;5.60;99.90
74822;DHT22;63353;48.702;8.884;2023-12-22T06:00:04;5.40;99.90
74822;DHT22;63353;48.702;8.884;2023-12-22T06:02:33;5.40;99.90
74822;DHT22;63353;48.702;8.884;2023-12-22T06:04:58;5.40;99.90
74822;DHT22;63353;48.702;8.884;2023-12-22T06:07:25;5.30;99.90
74822;DHT22;63353;48.702;8.884;2023-12-22T06:09:51;5.40;99.90
74822;DHT22;63353;48.702;8.884;2023-12-22T06:12:17;5.40;99.90
74822;DHT22;63353;48.702;8.884;2023-12-22T06:14:42;5.40;99.90
74822;DHT22;63353;48.702;8.884;2023-12-22T06:17:08;5.40;99.90
74822;DHT22;63353;48.702;8.884;2023-12-22T06:19:35;5.40;99.90
74822;DHT22;63353;48.702;8.884;2023-12-22T06:22:01;5.40;99.90
74822;DHT22;63353;48.702;8.884;2023-12-22T06:24:27;5.50;99.90
74822;DHT22;63353;48.702;8.884;2023-12-22T06:26:53;5.50;99.90
74822;DHT22;63353;48.702;8.884;2023-12-22T06:29:18;5.40;99.90
74822;DHT22;63353;48.702;8.884;2023-12-22T06:31:45;5.50;99.90
74822;DHT22;63353;48.702;8.884;2023-12-22T06:34:16;5.40;99.90
74822;DHT22;63353;48.702;8.884;2023-12-22T06:36:42;5.50;99.90
74822;DHT22;63353;48.702;8.884;2023-12-22T06:39:08;5.40;99.90
74822;DHT22;63353;48.702;8.884;2023-12-22T06:41:34;5.40;99.90
74822;DHT22;63353;48.702;8.884;2023-12-22T06:44:00;5.30;99.90
74822;DHT22;63353;48.702;8.884;2023-12-22T06:46:26;5.20;99.90
74822;DHT22;63353;48.702;8.884;2023-12-22T06:48:53;5.10;99.90
74822;DHT22;63353;48.702;8.884;2023-12-22T06:51:22;5.10;99.90
74822;DHT22;63353;48.702;8.884;2023-12-22T06:53:48;5.10;99.90
74822;DHT22;63353;48.702;8.884;2023-12-22T06:56:21;5.20;99.90
74822;DHT22;63353;48.702;8.884;2023-12-22T06:58:48;5.20;99.90
74822;DHT22;63353;48.702;8.884;2023-12-22T07:01:34;5.20;99.90
74822;DHT22;63353;48.702;8.884;2023-12-22T07:04:01;5.10;99.90
74822;DHT22;63353;48.702;8.884;2023-12-22T07:06:30;5.20;99.90
74822;DHT22;63353;48.702;8.884;2023-12-22T07:09:41;5.10;99.90
74822;DHT22;63353;48.702;8.884;2023-12-22T07:12:00;5.10;99.90
74822;DHT22;63353;48.702;8.884;2023-12-22T07:14:26;5.20;99.90
74822;DHT22;63353;48.702;8.884;2023-12-22T07:16:52;5.30;99.90
74822;DHT22;63353;48.702;8.884;2023-12-22T07:19:18;5.30;99.90
74822;DHT22;63353;48.702;8.884;2023-12-22T07:21:43;5.20;99.90
74822;DHT22;63353;48.702;8.884;2023-12-22T07:24:09;5.20;99.90
74822;DHT22;63353;48.702;8.884;2023-12-22T07:26:34;5.20;99.90
74822;DHT22;63353;48.702;8.884;2023-12-22T07:29:00;5.20;99.90
74822;DHT22;63353;48.702;8.884;2023-12-22T07:31:26;5.10;99.90
74822;DHT22;63353;48.702;8.884;2023-12-22T07:33:52;5.10;99.90
74822;DHT22;63353;48.702;8.884;2023-12-22T07:36:18;5.10;99.90
74822;DHT22;63353;48.702;8.884;2023-12-22T07:38:44;5.10;99.90
74822;DHT22;63353;48.702;8.884;2023-12-22T07:41:09;5.00;99.90
74822;DHT22;63353;48.702;8.884;2023-12-22T07:43:36;5.00;99.90
74822;DHT22;63353;48.702;8.884;2023-12-22T07:46:01;5.00;99.90
74822;DHT22;63353;48.702;8.884;2023-12-22T07:48:27;5.00;99.90
74822;DHT22;63353;48.702;8.884;2023-12-22T07:50:54;5.00;99.90
74822;DHT22;63353;48.702;8.884;2023-12-22T07:53:20;5.00;99.90
74822;DHT22;63353;48.702;8.884;2023-12-22T07:55:46;5.10;99.90
74822;DHT22;63353;48.702;8.884;2023-12-22T07:58:12;5.20;99.90
74822;DHT22;63353;48.702;8.884;2023-12-22T08:00:38;5.20;99.90
74822;DHT22;63353;48.702;8.884;2023-12-22T08:03:04;5.30;99.90
74822;DHT22;63353;48.702;8.884;2023-12-22T08:05:29;5.40;99.90
74822;DHT22;63353;48.702;8.884;2023-12-22T08:07:55;5.50;99.90
74822;DHT22;63353;48.702;8.884;2023-12-22T08:10:21;5.60;99.90
74822;DHT22;63353;48.702;8.884;2023-12-22T08:12:47;5.60;99.90
74822;DHT22;63353;48.702;8.884;2023-12-22T08:15:13;5.70;99.90
74822;DHT22;63353;48.702;8.884;2023-12-22T08:17:48;5.70;99.90
74822;DHT22;63353;48.702;8.884;2023-12-22T08:20:21;5.80;99.90
74822;DHT22;63353;48.702;8.884;2023-12-22T08:22:47;5.90;99.90
74822;DHT22;63353;48.702;8.884;2023-12-22T08:25:14;5.80;99.90
74822;DHT22;63353;48.702;8.884;2023-12-22T08:27:41;5.80;99.90
74822;DHT22;63353;48.702;8.884;2023-12-22T08:30:08;5.80;99.90
74822;DHT22;63353;48.702;8.884;2023-12-22T08:32:34;5.70;99.90
74822;DHT22;63353;48.702;8.884;2023-12-22T08:34:59;5.60;99.90
74822;DHT22;63353;48.702;8.884;2023-12-22T08:37:25;5.60;99.90
74822;DHT22;63353;48.702;8.884;2023-12-22T08:39:51;5.60;99.90
74822;DHT22;63353;48.702;8.884;2023-12-22T08:42:18;5.50;99.90
74822;DHT22;63353;48.702;8.884;2023-12-22T08:44:43;5.50;99.90
74822;DHT22;63353;48.702;8.884;2023-12-22T08:47:09;5.50;99.90
74822;DHT22;63353;48.702;8.884;2023-12-22T08:49:35;5.40;99.90
74822;DHT22;63353;48.702;8.884;2023-12-22T08:52:00;5.50;99.90
74822;DHT22;63353;48.702;8.884;2023-12-22T08:54:27;5.50;99.90
74822;DHT22;63353;48.702;8.884;2023-12-22T08:56:52;5.70;99.90
74822;DHT22;63353;48.702;8.884;2023-12-22T08:59:18;5.70;99.90
74822;DHT22;63353;48.702;8.884;2023-12-22T09:01:45;5.70;99.90
74822;DHT22;63353;48.702;8.884;2023-12-22T09:04:10;5.80;99.90
74822;DHT22;63353;48.702;8.884;2023-12-22T09:06:40;5.80;99.90
74822;DHT22;63353;48.702;8.884;2023-12-22T09:09:06;5.80;99.90
74822;DHT22;63353;48.702;8.884;2023-12-22T09:11:33;5.70;99.90
74822;DHT22;63353;48.702;8.884;2023-12-22T09:13:58;5.80;99.90
74822;DHT22;63353;48.702;8.884;2023-12-22T09:16:24;5.80;99.90
74822;DHT22;63353;48.702;8.884;2023-12-22T09:18:53;5.80;99.90
74822;DHT22;63353;48.702;8.884;2023-12-22T09:21:19;5.90;99.90
74822;DHT22;63353;48.702;8.884;2023-12-22T09:23:45;5.80;99.90
74822;DHT22;63353;48.702;8.884;2023-12-22T09:26:15;5.80;99.90
74822;DHT22;63353;48.702;8.884;2023-12-22T09:28:41;5.90;99.90
74822;DHT22;63353;48.702;8.884;2023-12-22T09:31:08;5.90;99.90
74822;DHT22;63353;48.702;8.884;2023-12-22T09:33:33;5.90;99.90
74822;DHT22;63353;48.702;8.884;2023-12-22T09:36:01;5.90;99.90
74822;DHT22;63353;48.702;8.884;2023-12-22T09:38:27;6.00;99.90
74822;DHT22;63353;48.702;8.884;2023-12-22T09:40:54;6.10;99.90
74822;DHT22;63353;48.702;8.884;2023-12-22T09:43:21;6.10;99.90
74822;DHT22;63353;48.702;8.884;2023-12-22T09:45:48;6.10;99.90
74822;DHT22;63353;48.702;8.884;2023-12-22T09:48:15;6.10;99.90
74822;DHT22;63353;48.702;8.884;2023-12-22T09:50:46;6.20;99.90
74822;DHT22;63353;48.702;8.884;2023-12-22T09:53:14;6.20;99.90
74822;DHT22;63353;48.702;8.884;2023-12-22T09:55:45;6.30;99.90
74822;DHT22;63353;48.702;8.884;2023-12-22T09:58:12;6.30;99.90
74822;DHT22;63353;48.702;8.884;2023-12-22T10:00:39;6.20;99.90
74822;DHT22;63353;48.702;8.884;2023-12-22T10:03:10;6.20;99.90
74822;DHT22;63353;48.702;8.884;2023-12-22T10:05:42;6.30;99.90
74822;DHT22;63353;48.702;8.884;2023-12-22T10:08:09;6.20;99.90
74822;DHT22;63353;48.702;8.884;2023-12-22T10:10:40;6.30;99.90
74822;DHT22;63353;48.702;8.884;2023-12-22T10:13:08;6.30;99.90
74822;DHT22;63353;48.702;8.884;2023-12-22T10:15:40;6.30;99.90
74822;DHT22;63353;48.702;8.884;2023-12-22T10:18:09;6.30;99.90
74822;DHT22;63353;48.702;8.884;2023-12-22T10:20:35;6.30;99.90
74822;DHT22;63353;48.702;8.884;2023-12-22T10:23:01;6.40;99.90
74822;DHT22;63353;48.702;8.884;2023-12-22T10:25:30;6.40;99.90
74822;DHT22;63353;48.702;8.884;2023-12-22T10:27:56;6.40;99.90
74822;DHT22;63353;48.702;8.884;2023-12-22T10:30:23;6.40;99.90
74822;DHT22;63353;48.702;8.884;2023-12-22T10:32:54;6.40;99.90
74822;DHT22;63353;48.702;8.884;2023-12-22T10:35:20;6.30;99.90
74822;DHT22;63353;48.702;8.884;2023-12-22T10:37:46;6.30;99.90
74822;DHT22;63353;48.702;8.884;2023-12-22T10:40:13;6.30;99.90
74822;DHT22;63353;48.702;8.884;2023-12-22T10:42:40;6.20;99.90
74822;DHT22;63353;48.702;8.884;2023-12-22T10:45:07;6.10;99.90
74822;DHT22;63353;48.702;8.884;2023-12-22T10:47:33;6.10;99.90
74822;DHT22;63353;48.702;8.884;2023-12-22T10:50:05;6.10;99.90
74822;DHT22;63353;48.702;8.884;2023-12-22T10:52:30;6.20;99.90
74822;DHT22;63353;48.702;8.884;2023-12-22T10:54:59;6.10;99.90
74822;DHT22;63353;48.702;8.884;2023-12-22T10:57:26;6.20;99.90
74822;DHT22;63353;48.702;8.884;2023-12-22T10:59:53;6.20;99.90
74822;DHT22;63353;48.702;8.884;2023-12-22T11:02:22;6.20;99.90
74822;DHT22;63353;48.702;8.884;2023-12-22T11:04:57;6.20;99.90
74822;DHT22;63353;48.702;8.884;2023-12-22T11:07:26;6.20;99.90
74822;DHT22;63353;48.702;8.884;2023-12-22T11:09:59;6.10;99.90
74822;DHT22;63353;48.702;8.884;2023-12-22T11:12:28;6.10;99.90
74822;DHT22;63353;48.702;8.884;2023-12-22T11:14:56;6.10;99.90
74822;DHT22;63353;48.702;8.884;2023-12-22T11:17:24;6.10;99.90
74822;DHT22;63353;48.702;8.884;2023-12-22T11:19:53;6.10;99.90
74822;DHT22;63353;48.702;8.884;2023-12-22T11:22:19;6.10;99.90
74822;DHT22;63353;48.702;8.884;2023-12-22T11:24:49;6.00;99.90
74822;DHT22;63353;48.702;8.884;2023-12-22T11:27:19;6.00;99.90
74822;DHT22;63353;48.702;8.884;2023-12-22T11:29:47;5.90;99.90
74822;DHT22;63353;48.702;8.884;2023-12-22T11:32:16;5.90;99.90
74822;DHT22;63353;48.702;8.884;2023-12-22T11:34:46;5.80;99.90
74822;DHT22;63353;48.702;8.884;2023-12-22T11:37:13;5.80;99.90
74822;DHT22;63353;48.702;8.884;2023-12-22T11:39:42;5.80;99.90
74822;DHT22;63353;48.702;8.884;2023-12-22T11:42:17;5.90;99.90
74822;DHT22;63353;48.702;8.884;2023-12-22T11:44:43;5.80;99.90
74822;DHT22;63353;48.702;8.884;2023-12-22T11:47:10;5.90;99.90
74822;DHT22;63353;48.702;8.884;2023-12-22T11:49:38;5.90;99.90
74822;DHT22;63353;48.702;8.884;2023-12-22T11:54:53;5.90;99.90
74822;DHT22;63353;48.702;8.884;2023-12-22T12:00:37;5.80;99.90
74822;DHT22;63353;48.702;8.884;2023-12-22T12:03:06;5.80;99.90
74822;DHT22;63353;48.702;8.884;2023-12-22T12:05:31;5.80;99.90
74822;DHT22;63353;48.702;8.884;2023-12-22T12:08:06;5.80;99.90
74822;DHT22;63353;48.702;8.884;2023-12-22T12:13:05;5.70;99.90
74822;DHT22;63353;48.702;8.884;2023-12-22T12:15:33;5.70;99.90
74822;DHT22;63353;48.702;8.884;2023-12-22T12:17:59;5.70;99.90
74822;DHT22;63353;48.702;8.884;2023-12-22T12:20:26;5.70;99.90
74822;DHT22;63353;48.702;8.884;2023-12-22T12:22:53;5.70;99.90
74822;DHT22;63353;48.702;8.884;2023-12-22T12:25:22;5.70;99.90
74822;DHT22;63353;48.702;8.884;2023-12-22T12:28:00;5.60;99.90
74822;DHT22;63353;48.702;8.884;2023-12-22T12:30:26;5.60;99.90
74822;DHT22;63353;48.702;8.884;2023-12-22T12:32:51;5.60;99.90
74822;DHT22;63353;48.702;8.884;2023-12-22T12:35:18;5.60;99.90
74822;DHT22;63353;48.702;8.884;2023-12-22T12:37:45;5.70;99.90
74822;DHT22;63353;48.702;8.884;2023-12-22T12:40:15;5.70;99.90
74822;DHT22;63353;48.702;8.884;2023-12-22T12:42:43;5.70;99.90
74822;DHT22;63353;48.702;8.884;2023-12-22T12:45:09;5.70;99.90
74822;DHT22;63353;48.702;8.884;2023-12-22T12:47:35;5.70;99.90
74822;DHT22;63353;48.702;8.884;2023-12-22T12:50:01;5.80;99.90
74822;DHT22;63353;48.702;8.884;2023-12-22T12:52:27;5.80;99.90
74822;DHT22;63353;48.702;8.884;2023-12-22T12:54:53;5.90;99.90
74822;DHT22;63353;48.702;8.884;2023-12-22T12:57:19;6.10;99.90
74822;DHT22;63353;48.702;8.884;2023-12-22T12:59:49;6.20;99.90
74822;DHT22;63353;48.702;8.884;2023-12-22T13:02:16;6.20;99.90
74822;DHT22;63353;48.702;8.884;2023-12-22T13:04:43;6.30;99.90
74822;DHT22;63353;48.702;8.884;2023-12-22T13:07:09;6.40;99.90
74822;DHT22;63353;48.702;8.884;2023-12-22T13:09:40;6.60;99.90
74822;DHT22;63353;48.702;8.884;2023-12-22T13:12:09;6.70;99.90
74822;DHT22;63353;48.702;8.884;2023-12-22T13:14:35;6.80;99.90
74822;DHT22;63353;48.702;8.884;2023-12-22T13:17:01;6.90;99.90
74822;DHT22;63353;48.702;8.884;2023-12-22T13:19:27;7.10;99.90
74822;DHT22;63353;48.702;8.884;2023-12-22T13:21:54;7.10;99.90
74822;DHT22;63353;48.702;8.884;2023-12-22T13:24:20;7.20;99.90
74822;DHT22;63353;48.702;8.884;2023-12-22T13:26:46;7.20;99.90
74822;DHT22;63353;48.702;8.884;2023-12-22T13:29:12;7.20;99.90
74822;DHT22;63353;48.702;8.884;2023-12-22T13:31:40;7.30;99.90
74822;DHT22;63353;48.702;8.884;2023-12-22T13:34:10;7.30;99.90
74822;DHT22;63353;48.702;8.884;2023-12-22T13:36:36;7.20;99.90
74822;DHT22;63353;48.702;8.884;2023-12-22T13:39:06;7.20;99.90
74822;DHT22;63353;48.702;8.884;2023-12-22T13:41:33;7.20;99.90
74822;DHT22;63353;48.702;8.884;2023-12-22T13:44:03;7.20;99.90
74822;DHT22;63353;48.702;8.884;2023-12-22T13:46:29;7.30;99.90
74822;DHT22;63353;48.702;8.884;2023-12-22T13:48:55;7.40;99.90
74822;DHT22;63353;48.702;8.884;2023-12-22T13:51:21;7.30;99.90
74822;DHT22;63353;48.702;8.884;2023-12-22T13:53:47;7.40;99.90
74822;DHT22;63353;48.702;8.884;2023-12-22T13:56:13;7.40;99.90
74822;DHT22;63353;48.702;8.884;2023-12-22T13:58:46;7.40;99.90
74822;DHT22;63353;48.702;8.884;2023-12-22T14:01:13;7.40;99.90
74822;DHT22;63353;48.702;8.884;2023-12-22T14:03:41;7.30;99.90
74822;DHT22;63353;48.702;8.884;2023-12-22T14:06:07;7.40;99.90
74822;DHT22;63353;48.702;8.884;2023-12-22T14:08:41;7.40;99.90
74822;DHT22;63353;48.702;8.884;2023-12-22T14:11:08;7.50;99.90
74822;DHT22;63353;48.702;8.884;2023-12-22T14:13:33;7.50;99.90
74822;DHT22;63353;48.702;8.884;2023-12-22T14:16:08;7.50;99.90
74822;DHT22;63353;48.702;8.884;2023-12-22T14:18:34;7.50;99.90
74822;DHT22;63353;48.702;8.884;2023-12-22T14:21:00;7.50;99.90
74822;DHT22;63353;48.702;8.884;2023-12-22T14:23:26;7.50;99.90
74822;DHT22;63353;48.702;8.884;2023-12-22T14:25:52;7.50;99.90
74822;DHT22;63353;48.702;8.884;2023-12-22T14:28:18;7.50;99.90
74822;DHT22;63353;48.702;8.884;2023-12-22T14:30:44;7.50;99.90
74822;DHT22;63353;48.702;8.884;2023-12-22T14:33:10;7.60;99.90
74822;DHT22;63353;48.702;8.884;2023-12-22T14:35:36;7.60;99.90
74822;DHT22;63353;48.702;8.884;2023-12-22T14:38:02;7.60;99.90
74822;DHT22;63353;48.702;8.884;2023-12-22T14:40:28;7.60;99.90
74822;DHT22;63353;48.702;8.884;2023-12-22T14:42:53;7.70;99.90
74822;DHT22;63353;48.702;8.884;2023-12-22T14:45:19;7.70;99.90
74822;DHT22;63353;48.702;8.884;2023-12-22T14:47:44;7.70;99.90
74822;DHT22;63353;48.702;8.884;2023-12-22T14:50:10;7.70;99.90
74822;DHT22;63353;48.702;8.884;2023-12-22T14:52:36;7.60;99.90
74822;DHT22;63353;48.702;8.884;2023-12-22T14:55:02;7.70;99.90
74822;DHT22;63353;48.702;8.884;2023-12-22T14:57:31;7.70;99.90
74822;DHT22;63353;48.702;8.884;2023-12-22T14:59:56;7.70;99.90
74822;DHT22;63353;48.702;8.884;2023-12-22T15:02:22;7.70;99.90
74822;DHT22;63353;48.702;8.884;2023-12-22T15:04:48;7.70;99.90
74822;DHT22;63353;48.702;8.884;2023-12-22T15:07:17;7.70;99.90
74822;DHT22;63353;48.702;8.884;2023-12-22T15:09:43;7.60;99.90
74822;DHT22;63353;48.702;8.884;2023-12-22T15:12:10;7.60;99.90
74822;DHT22;63353;48.702;8.884;2023-12-22T15:14:36;7.60;99.90
74822;DHT22;63353;48.702;8.884;2023-12-22T15:17:02;7.60;99.90
74822;DHT22;63353;48.702;8.884;2023-12-22T15:19:27;7.60;99.90
74822;DHT22;63353;48.702;8.884;2023-12-22T15:21:53;7.60;99.90
74822;DHT22;63353;48.702;8.884;2023-12-22T15:24:19;7.60;99.90
74822;DHT22;63353;48.702;8.884;2023-12-22T15:26:45;7.60;99.90
74822;DHT22;63353;48.702;8.884;2023-12-22T15:29:10;7.60;99.90
74822;DHT22;63353;48.702;8.884;2023-12-22T15:31:36;7.60;99.90
74822;DHT22;63353;48.702;8.884;2023-12-22T15:34:01;7.60;99.90
74822;DHT22;63353;48.702;8.884;2023-12-22T15:36:28;7.60;99.90
74822;DHT22;63353;48.702;8.884;2023-12-22T15:38:55;7.60;99.90
74822;DHT22;63353;48.702;8.884;2023-12-22T15:41:20;7.60;99.90
74822;DHT22;63353;48.702;8.884;2023-12-22T15:43:46;7.50;99.90
74822;DHT22;63353;48.702;8.884;2023-12-22T15:46:13;7.50;99.90
74822;DHT22;63353;48.702;8.884;2023-12-22T15:48:39;7.40;99.90
74822;DHT22;63353;48.702;8.884;2023-12-22T15:51:09;7.40;99.90